sensor_id;sensor_type;location;lat;lon;timestamp;P1;durP1;ratioP1;P2;durP2;ratioP2
15402;SDS011;7799;53.478;10.170;2023-07-31T00:01:17;1.77;;;1.20;;
15402;SDS011;7799;53.478;10.170;2023-07-31T00:03:45;2.93;;;1.07;;
15402;SDS011;7799;53.478;10.170;2023-07-31T00:06:11;1.40;;;1.03;;
15402;SDS011;7799;53.478;10.170;2023-07-31T00:08:38;1.50;;;1.13;;
15402;SDS011;7799;53.478;10.170;2023-07-31T00:11:06;1.40;;;1.10;;
15402;SDS011;7799;53.478;10.170;2023-07-31T00:13:33;1.47;;;0.90;;
15402;SDS011;7799;53.478;10.170;2023-07-31T00:15:59;1.53;;;0.90;;
15402;SDS011;7799;53.478;10.170;2023-07-31T00:18:26;1.17;;;1.07;;
15402;SDS011;7799;53.478;10.170;2023-07-31T00:20:52;0.90;;;0.90;;
15402;SDS011;7799;53.478;10.170;2023-07-31T00:23:19;1.00;;;0.90;;
15402;SDS011;7799;53.478;10.170;2023-07-31T00:25:46;1.20;;;1.10;;
15402;SDS011;7799;53.478;10.170;2023-07-31T00:28:14;1.37;;;0.90;;
15402;SDS011;7799;53.478;10.170;2023-07-31T00:30:40;1.00;;;0.97;;
15402;SDS011;7799;53.478;10.170;2023-07-31T00:33:07;0.80;;;0.80;;
15402;SDS011;7799;53.478;10.170;2023-07-31T00:35:36;0.60;;;0.60;;
15402;SDS011;7799;53.478;10.170;2023-07-31T00:38:03;0.90;;;0.90;;
15402;SDS011;7799;53.478;10.170;2023-07-31T00:40:30;1.03;;;0.97;;
15402;SDS011;7799;53.478;10.170;2023-07-31T00:43:01;1.13;;;1.00;;
15402;SDS011;7799;53.478;10.170;2023-07-31T00:45:29;1.43;;;0.90;;
15402;SDS011;7799;53.478;10.170;2023-07-31T00:47:57;0.90;;;0.90;;
15402;SDS011;7799;53.478;10.170;2023-07-31T00:50:24;0.80;;;0.80;;
15402;SDS011;7799;53.478;10.170;2023-07-31T00:52:51;0.60;;;0.60;;
15402;SDS011;7799;53.478;10.170;2023-07-31T00:55:18;0.70;;;0.60;;
15402;SDS011;7799;53.478;10.170;2023-07-31T00:57:46;0.70;;;0.70;;
15402;SDS011;7799;53.478;10.170;2023-07-31T01:00:14;0.60;;;0.60;;
15402;SDS011;7799;53.478;10.170;2023-07-31T01:02:43;0.57;;;0.57;;
15402;SDS011;7799;53.478;10.170;2023-07-31T01:05:10;0.60;;;0.60;;
15402;SDS011;7799;53.478;10.170;2023-07-31T01:07:39;0.60;;;0.60;;
15402;SDS011;7799;53.478;10.170;2023-07-31T01:10:14;0.77;;;0.60;;
15402;SDS011;7799;53.478;10.170;2023-07-31T01:12:43;0.50;;;0.50;;
15402;SDS011;7799;53.478;10.170;2023-07-31T01:15:11;0.67;;;0.63;;
15402;SDS011;7799;53.478;10.170;2023-07-31T01:17:41;0.67;;;0.50;;
15402;SDS011;7799;53.478;10.170;2023-07-31T01:20:11;0.43;;;0.43;;
15402;SDS011;7799;53.478;10.170;2023-07-31T01:22:46;1.40;;;0.97;;
15402;SDS011;7799;53.478;10.170;2023-07-31T01:25:25;2.57;;;0.70;;
15402;SDS011;7799;53.478;10.170;2023-07-31T01:28:04;0.63;;;0.60;;
15402;SDS011;7799;53.478;10.170;2023-07-31T01:30:34;0.30;;;0.30;;
15402;SDS011;7799;53.478;10.170;2023-07-31T01:33:05;0.93;;;0.60;;
15402;SDS011;7799;53.478;10.170;2023-07-31T01:35:33;0.60;;;0.47;;
15402;SDS011;7799;53.478;10.170;2023-07-31T01:38:00;0.70;;;0.50;;
15402;SDS011;7799;53.478;10.170;2023-07-31T01:40:27;0.60;;;0.60;;
15402;SDS011;7799;53.478;10.170;2023-07-31T01:42:53;0.70;;;0.70;;
15402;SDS011;7799;53.478;10.170;2023-07-31T01:45:21;0.73;;;0.50;;
15402;SDS011;7799;53.478;10.170;2023-07-31T01:47:48;0.93;;;0.70;;
15402;SDS011;7799;53.478;10.170;2023-07-31T01:50:15;0.70;;;0.70;;
15402;SDS011;7799;53.478;10.170;2023-07-31T01:52:42;0.63;;;0.63;;
15402;SDS011;7799;53.478;10.170;2023-07-31T01:55:09;1.47;;;0.60;;
15402;SDS011;7799;53.478;10.170;2023-07-31T01:57:36;1.93;;;1.10;;
15402;SDS011;7799;53.478;10.170;2023-07-31T02:00:03;1.43;;;0.90;;
15402;SDS011;7799;53.478;10.170;2023-07-31T02:02:38;1.20;;;0.90;;
15402;SDS011;7799;53.478;10.170;2023-07-31T02:05:05;1.67;;;0.97;;
15402;SDS011;7799;53.478;10.170;2023-07-31T02:07:32;0.77;;;0.77;;
15402;SDS011;7799;53.478;10.170;2023-07-31T02:09:59;4.30;;;0.90;;
15402;SDS011;7799;53.478;10.170;2023-07-31T02:12:26;0.70;;;0.70;;
15402;SDS011;7799;53.478;10.170;2023-07-31T02:14:55;0.60;;;0.60;;
15402;SDS011;7799;53.478;10.170;2023-07-31T02:17:22;0.90;;;0.90;;
15402;SDS011;7799;53.478;10.170;2023-07-31T02:19:50;1.53;;;0.93;;
15402;SDS011;7799;53.478;10.170;2023-07-31T02:22:17;0.83;;;0.80;;
15402;SDS011;7799;53.478;10.170;2023-07-31T02:24:43;0.70;;;0.70;;
15402;SDS011;7799;53.478;10.170;2023-07-31T02:27:10;1.40;;;0.90;;
15402;SDS011;7799;53.478;10.170;2023-07-31T02:29:37;1.10;;;0.80;;
15402;SDS011;7799;53.478;10.170;2023-07-31T02:32:04;1.57;;;1.20;;
15402;SDS011;7799;53.478;10.170;2023-07-31T02:34:31;1.30;;;1.00;;
15402;SDS011;7799;53.478;10.170;2023-07-31T02:36:59;1.50;;;1.20;;
15402;SDS011;7799;53.478;10.170;2023-07-31T02:39:26;1.13;;;0.87;;
15402;SDS011;7799;53.478;10.170;2023-07-31T02:41:53;0.70;;;0.70;;
15402;SDS011;7799;53.478;10.170;2023-07-31T02:44:20;1.97;;;1.00;;
15402;SDS011;7799;53.478;10.170;2023-07-31T02:46:46;1.30;;;1.20;;
15402;SDS011;7799;53.478;10.170;2023-07-31T02:49:14;1.27;;;1.17;;
15402;SDS011;7799;53.478;10.170;2023-07-31T02:51:41;2.30;;;1.30;;
15402;SDS011;7799;53.478;10.170;2023-07-31T02:54:09;1.40;;;1.30;;
15402;SDS011;7799;53.478;10.170;2023-07-31T02:56:36;2.33;;;1.60;;
15402;SDS011;7799;53.478;10.170;2023-07-31T02:59:02;1.23;;;1.20;;
15402;SDS011;7799;53.478;10.170;2023-07-31T03:01:29;1.67;;;1.57;;
15402;SDS011;7799;53.478;10.170;2023-07-31T03:03:56;2.43;;;1.60;;
15402;SDS011;7799;53.478;10.170;2023-07-31T03:06:22;1.67;;;1.57;;
15402;SDS011;7799;53.478;10.170;2023-07-31T03:08:49;1.90;;;1.60;;
15402;SDS011;7799;53.478;10.170;2023-07-31T03:11:17;1.60;;;1.50;;
15402;SDS011;7799;53.478;10.170;2023-07-31T03:13:44;2.10;;;1.40;;
15402;SDS011;7799;53.478;10.170;2023-07-31T03:16:11;2.73;;;1.80;;
15402;SDS011;7799;53.478;10.170;2023-07-31T03:18:37;3.23;;;1.80;;
15402;SDS011;7799;53.478;10.170;2023-07-31T03:21:04;1.60;;;1.50;;
15402;SDS011;7799;53.478;10.170;2023-07-31T03:23:31;2.63;;;1.90;;
15402;SDS011;7799;53.478;10.170;2023-07-31T03:25:57;1.13;;;1.10;;
15402;SDS011;7799;53.478;10.170;2023-07-31T03:28:28;1.37;;;1.27;;
15402;SDS011;7799;53.478;10.170;2023-07-31T03:30:55;1.70;;;1.23;;
15402;SDS011;7799;53.478;10.170;2023-07-31T03:33:22;2.87;;;1.80;;
15402;SDS011;7799;53.478;10.170;2023-07-31T03:35:49;1.90;;;1.77;;
15402;SDS011;7799;53.478;10.170;2023-07-31T03:38:16;1.50;;;1.40;;
15402;SDS011;7799;53.478;10.170;2023-07-31T03:40:43;2.40;;;1.80;;
15402;SDS011;7799;53.478;10.170;2023-07-31T03:43:10;1.90;;;1.80;;
15402;SDS011;7799;53.478;10.170;2023-07-31T03:45:39;1.60;;;1.50;;
15402;SDS011;7799;53.478;10.170;2023-07-31T03:48:06;2.43;;;1.80;;
15402;SDS011;7799;53.478;10.170;2023-07-31T03:50:33;1.73;;;1.50;;
15402;SDS011;7799;53.478;10.170;2023-07-31T03:53:00;2.00;;;1.90;;
15402;SDS011;7799;53.478;10.170;2023-07-31T03:55:27;2.00;;;1.90;;
15402;SDS011;7799;53.478;10.170;2023-07-31T03:57:53;2.10;;;2.00;;
15402;SDS011;7799;53.478;10.170;2023-07-31T04:00:20;2.20;;;2.10;;
15402;SDS011;7799;53.478;10.170;2023-07-31T04:02:49;2.83;;;2.53;;
15402;SDS011;7799;53.478;10.170;2023-07-31T04:05:15;2.70;;;2.50;;
15402;SDS011;7799;53.478;10.170;2023-07-31T04:07:42;2.83;;;2.63;;
15402;SDS011;7799;53.478;10.170;2023-07-31T04:10:09;2.57;;;2.40;;
15402;SDS011;7799;53.478;10.170;2023-07-31T04:12:36;2.63;;;2.43;;
15402;SDS011;7799;53.478;10.170;2023-07-31T04:15:02;2.33;;;2.13;;
15402;SDS011;7799;53.478;10.170;2023-07-31T04:17:29;2.10;;;1.90;;
15402;SDS011;7799;53.478;10.170;2023-07-31T04:19:57;2.53;;;2.23;;
15402;SDS011;7799;53.478;10.170;2023-07-31T04:22:24;1.80;;;1.70;;
15402;SDS011;7799;53.478;10.170;2023-07-31T04:24:51;1.70;;;1.60;;
15402;SDS011;7799;53.478;10.170;2023-07-31T04:27:17;2.20;;;2.10;;
15402;SDS011;7799;53.478;10.170;2023-07-31T04:29:44;2.60;;;2.40;;
15402;SDS011;7799;53.478;10.170;2023-07-31T04:32:12;3.07;;;2.60;;
15402;SDS011;7799;53.478;10.170;2023-07-31T04:34:40;3.27;;;2.97;;
15402;SDS011;7799;53.478;10.170;2023-07-31T04:37:08;3.40;;;3.10;;
15402;SDS011;7799;53.478;10.170;2023-07-31T04:39:35;3.37;;;3.07;;
15402;SDS011;7799;53.478;10.170;2023-07-31T04:42:02;3.77;;;3.47;;
15402;SDS011;7799;53.478;10.170;2023-07-31T04:44:29;3.57;;;3.27;;
15402;SDS011;7799;53.478;10.170;2023-07-31T04:46:55;3.47;;;3.23;;
15402;SDS011;7799;53.478;10.170;2023-07-31T04:49:22;3.90;;;3.50;;
15402;SDS011;7799;53.478;10.170;2023-07-31T04:51:49;3.50;;;3.27;;
15402;SDS011;7799;53.478;10.170;2023-07-31T04:54:17;3.50;;;3.30;;
15402;SDS011;7799;53.478;10.170;2023-07-31T04:56:43;4.30;;;3.97;;
15402;SDS011;7799;53.478;10.170;2023-07-31T04:59:10;6.43;;;3.80;;
15402;SDS011;7799;53.478;10.170;2023-07-31T05:01:37;3.23;;;2.93;;
15402;SDS011;7799;53.478;10.170;2023-07-31T05:04:03;3.93;;;3.60;;
15402;SDS011;7799;53.478;10.170;2023-07-31T05:06:30;3.73;;;3.43;;
15402;SDS011;7799;53.478;10.170;2023-07-31T05:08:56;3.77;;;3.47;;
15402;SDS011;7799;53.478;10.170;2023-07-31T05:11:24;3.67;;;3.47;;
15402;SDS011;7799;53.478;10.170;2023-07-31T05:13:51;4.17;;;3.73;;
15402;SDS011;7799;53.478;10.170;2023-07-31T05:16:18;3.53;;;3.23;;
15402;SDS011;7799;53.478;10.170;2023-07-31T05:18:44;3.40;;;3.20;;
15402;SDS011;7799;53.478;10.170;2023-07-31T05:21:11;3.57;;;3.23;;
15402;SDS011;7799;53.478;10.170;2023-07-31T05:23:38;3.37;;;3.17;;
15402;SDS011;7799;53.478;10.170;2023-07-31T05:26:04;3.10;;;2.90;;
15402;SDS011;7799;53.478;10.170;2023-07-31T05:28:33;2.50;;;2.40;;
15402;SDS011;7799;53.478;10.170;2023-07-31T05:31:01;2.50;;;2.30;;
15402;SDS011;7799;53.478;10.170;2023-07-31T05:33:28;2.43;;;2.33;;
15402;SDS011;7799;53.478;10.170;2023-07-31T05:35:55;2.00;;;1.90;;
15402;SDS011;7799;53.478;10.170;2023-07-31T05:38:21;2.00;;;1.90;;
15402;SDS011;7799;53.478;10.170;2023-07-31T05:40:48;2.40;;;2.20;;
15402;SDS011;7799;53.478;10.170;2023-07-31T05:43:15;1.80;;;1.70;;
15402;SDS011;7799;53.478;10.170;2023-07-31T05:45:43;1.80;;;1.70;;
15402;SDS011;7799;53.478;10.170;2023-07-31T05:48:11;1.70;;;1.60;;
15402;SDS011;7799;53.478;10.170;2023-07-31T05:50:37;1.70;;;1.60;;
15402;SDS011;7799;53.478;10.170;2023-07-31T05:53:05;1.70;;;1.60;;
15402;SDS011;7799;53.478;10.170;2023-07-31T05:55:31;1.60;;;1.50;;
15402;SDS011;7799;53.478;10.170;2023-07-31T05:57:58;1.60;;;1.50;;
15402;SDS011;7799;53.478;10.170;2023-07-31T06:00:25;1.50;;;1.40;;
15402;SDS011;7799;53.478;10.170;2023-07-31T06:02:54;1.73;;;1.63;;
15402;SDS011;7799;53.478;10.170;2023-07-31T06:05:20;1.97;;;1.87;;
15402;SDS011;7799;53.478;10.170;2023-07-31T06:07:47;2.50;;;2.00;;
15402;SDS011;7799;53.478;10.170;2023-07-31T06:10:14;2.03;;;1.93;;
15402;SDS011;7799;53.478;10.170;2023-07-31T06:12:40;2.57;;;2.37;;
15402;SDS011;7799;53.478;10.170;2023-07-31T06:15:07;2.00;;;1.90;;
15402;SDS011;7799;53.478;10.170;2023-07-31T06:17:34;2.80;;;2.60;;
15402;SDS011;7799;53.478;10.170;2023-07-31T06:20:03;2.17;;;2.07;;
15402;SDS011;7799;53.478;10.170;2023-07-31T06:22:30;2.17;;;2.07;;
15402;SDS011;7799;53.478;10.170;2023-07-31T06:24:57;2.30;;;2.20;;
15402;SDS011;7799;53.478;10.170;2023-07-31T06:27:24;2.93;;;2.73;;
15402;SDS011;7799;53.478;10.170;2023-07-31T06:29:51;2.53;;;2.40;;
15402;SDS011;7799;53.478;10.170;2023-07-31T06:32:17;2.47;;;2.37;;
15402;SDS011;7799;53.478;10.170;2023-07-31T06:34:44;2.33;;;2.23;;
15402;SDS011;7799;53.478;10.170;2023-07-31T06:37:12;2.17;;;2.07;;
15402;SDS011;7799;53.478;10.170;2023-07-31T06:39:39;2.27;;;2.17;;
15402;SDS011;7799;53.478;10.170;2023-07-31T06:42:06;2.07;;;1.97;;
15402;SDS011;7799;53.478;10.170;2023-07-31T06:44:33;2.10;;;2.00;;
15402;SDS011;7799;53.478;10.170;2023-07-31T06:46:59;2.43;;;2.23;;
15402;SDS011;7799;53.478;10.170;2023-07-31T06:49:26;2.20;;;2.10;;
15402;SDS011;7799;53.478;10.170;2023-07-31T06:51:52;1.80;;;1.70;;
15402;SDS011;7799;53.478;10.170;2023-07-31T06:54:20;1.93;;;1.83;;
15402;SDS011;7799;53.478;10.170;2023-07-31T06:56:47;1.73;;;1.60;;
15402;SDS011;7799;53.478;10.170;2023-07-31T06:59:14;1.60;;;1.50;;
15402;SDS011;7799;53.478;10.170;2023-07-31T07:01:40;1.20;;;1.20;;
15402;SDS011;7799;53.478;10.170;2023-07-31T07:04:07;1.50;;;1.40;;
15402;SDS011;7799;53.478;10.170;2023-07-31T07:06:34;1.60;;;1.50;;
15402;SDS011;7799;53.478;10.170;2023-07-31T07:09:00;1.50;;;1.40;;
15402;SDS011;7799;53.478;10.170;2023-07-31T07:11:29;1.30;;;1.20;;
15402;SDS011;7799;53.478;10.170;2023-07-31T07:13:56;1.50;;;1.40;;
15402;SDS011;7799;53.478;10.170;2023-07-31T07:16:22;0.97;;;0.97;;
15402;SDS011;7799;53.478;10.170;2023-07-31T07:18:49;1.20;;;1.20;;
15402;SDS011;7799;53.478;10.170;2023-07-31T07:21:16;1.10;;;1.10;;
15402;SDS011;7799;53.478;10.170;2023-07-31T07:23:43;0.80;;;0.80;;
15402;SDS011;7799;53.478;10.170;2023-07-31T07:26:09;1.03;;;0.93;;
15402;SDS011;7799;53.478;10.170;2023-07-31T07:28:37;1.33;;;1.23;;
15402;SDS011;7799;53.478;10.170;2023-07-31T07:31:04;1.30;;;1.30;;
15402;SDS011;7799;53.478;10.170;2023-07-31T07:33:31;1.47;;;1.37;;
15402;SDS011;7799;53.478;10.170;2023-07-31T07:35:59;1.00;;;1.00;;
15402;SDS011;7799;53.478;10.170;2023-07-31T07:38:26;0.90;;;0.90;;
15402;SDS011;7799;53.478;10.170;2023-07-31T07:40:53;0.90;;;0.90;;
15402;SDS011;7799;53.478;10.170;2023-07-31T07:43:20;0.80;;;0.80;;
15402;SDS011;7799;53.478;10.170;2023-07-31T07:45:48;1.03;;;1.00;;
15402;SDS011;7799;53.478;10.170;2023-07-31T07:48:14;0.70;;;0.70;;
15402;SDS011;7799;53.478;10.170;2023-07-31T07:50:42;0.80;;;0.80;;
15402;SDS011;7799;53.478;10.170;2023-07-31T07:53:09;0.63;;;0.63;;
15402;SDS011;7799;53.478;10.170;2023-07-31T07:55:35;0.80;;;0.80;;
15402;SDS011;7799;53.478;10.170;2023-07-31T07:58:02;0.77;;;0.77;;
15402;SDS011;7799;53.478;10.170;2023-07-31T08:00:29;0.70;;;0.70;;
15402;SDS011;7799;53.478;10.170;2023-07-31T08:02:57;0.80;;;0.80;;
15402;SDS011;7799;53.478;10.170;2023-07-31T08:05:23;0.70;;;0.70;;
15402;SDS011;7799;53.478;10.170;2023-07-31T08:07:50;0.83;;;0.83;;
15402;SDS011;7799;53.478;10.170;2023-07-31T08:10:17;0.70;;;0.70;;
15402;SDS011;7799;53.478;10.170;2023-07-31T08:12:43;0.90;;;0.90;;
15402;SDS011;7799;53.478;10.170;2023-07-31T08:15:10;1.00;;;1.00;;
15402;SDS011;7799;53.478;10.170;2023-07-31T08:17:37;0.80;;;0.80;;
15402;SDS011;7799;53.478;10.170;2023-07-31T08:20:06;0.97;;;0.97;;
15402;SDS011;7799;53.478;10.170;2023-07-31T08:22:33;0.87;;;0.87;;
15402;SDS011;7799;53.478;10.170;2023-07-31T08:25:00;0.90;;;0.90;;
15402;SDS011;7799;53.478;10.170;2023-07-31T08:27:26;0.90;;;0.90;;
15402;SDS011;7799;53.478;10.170;2023-07-31T08:29:53;1.03;;;0.90;;
15402;SDS011;7799;53.478;10.170;2023-07-31T08:32:20;0.70;;;0.70;;
15402;SDS011;7799;53.478;10.170;2023-07-31T08:34:46;0.70;;;0.70;;
15402;SDS011;7799;53.478;10.170;2023-07-31T08:37:15;0.80;;;0.80;;
15402;SDS011;7799;53.478;10.170;2023-07-31T08:39:42;0.70;;;0.70;;
15402;SDS011;7799;53.478;10.170;2023-07-31T08:42:09;0.50;;;0.50;;
15402;SDS011;7799;53.478;10.170;2023-07-31T08:44:35;0.60;;;0.60;;
15402;SDS011;7799;53.478;10.170;2023-07-31T08:47:03;0.60;;;0.60;;
15402;SDS011;7799;53.478;10.170;2023-07-31T08:49:30;0.50;;;0.50;;
15402;SDS011;7799;53.478;10.170;2023-07-31T08:51:57;0.50;;;0.50;;
15402;SDS011;7799;53.478;10.170;2023-07-31T08:54:25;0.57;;;0.57;;
15402;SDS011;7799;53.478;10.170;2023-07-31T08:56:55;0.50;;;0.50;;
15402;SDS011;7799;53.478;10.170;2023-07-31T08:59:23;0.67;;;0.67;;
15402;SDS011;7799;53.478;10.170;2023-07-31T09:01:50;0.40;;;0.40;;
15402;SDS011;7799;53.478;10.170;2023-07-31T09:04:19;0.50;;;0.50;;
15402;SDS011;7799;53.478;10.170;2023-07-31T09:06:46;0.50;;;0.50;;
15402;SDS011;7799;53.478;10.170;2023-07-31T09:09:13;0.40;;;0.40;;
15402;SDS011;7799;53.478;10.170;2023-07-31T09:11:41;0.50;;;0.50;;
15402;SDS011;7799;53.478;10.170;2023-07-31T09:14:08;0.50;;;0.50;;
15402;SDS011;7799;53.478;10.170;2023-07-31T09:16:35;0.73;;;0.60;;
15402;SDS011;7799;53.478;10.170;2023-07-31T09:19:01;0.40;;;0.40;;
15402;SDS011;7799;53.478;10.170;2023-07-31T09:21:29;0.50;;;0.50;;
15402;SDS011;7799;53.478;10.170;2023-07-31T09:23:57;0.43;;;0.43;;
15402;SDS011;7799;53.478;10.170;2023-07-31T09:26:30;0.50;;;0.50;;
15402;SDS011;7799;53.478;10.170;2023-07-31T09:29:00;0.50;;;0.50;;
15402;SDS011;7799;53.478;10.170;2023-07-31T09:31:40;0.50;;;0.50;;
15402;SDS011;7799;53.478;10.170;2023-07-31T09:34:07;0.40;;;0.40;;
15402;SDS011;7799;53.478;10.170;2023-07-31T09:36:39;0.37;;;0.37;;
15402;SDS011;7799;53.478;10.170;2023-07-31T09:39:07;0.40;;;0.40;;
15402;SDS011;7799;53.478;10.170;2023-07-31T09:41:36;0.40;;;0.40;;
15402;SDS011;7799;53.478;10.170;2023-07-31T09:44:05;0.30;;;0.30;;
15402;SDS011;7799;53.478;10.170;2023-07-31T09:46:31;0.30;;;0.30;;
15402;SDS011;7799;53.478;10.170;2023-07-31T09:49:05;0.20;;;0.20;;
15402;SDS011;7799;53.478;10.170;2023-07-31T09:51:34;0.23;;;0.23;;
15402;SDS011;7799;53.478;10.170;2023-07-31T09:54:09;0.20;;;0.20;;
15402;SDS011;7799;53.478;10.170;2023-07-31T09:56:38;0.20;;;0.20;;
15402;SDS011;7799;53.478;10.170;2023-07-31T09:59:11;0.20;;;0.20;;
15402;SDS011;7799;53.478;10.170;2023-07-31T10:01:39;0.20;;;0.20;;
15402;SDS011;7799;53.478;10.170;2023-07-31T10:04:07;0.20;;;0.20;;
15402;SDS011;7799;53.478;10.170;2023-07-31T10:06:34;0.20;;;0.20;;
15402;SDS011;7799;53.478;10.170;2023-07-31T10:09:01;0.20;;;0.20;;
15402;SDS011;7799;53.478;10.170;2023-07-31T10:11:28;0.50;;;0.30;;
15402;SDS011;7799;53.478;10.170;2023-07-31T10:13:56;0.20;;;0.20;;
15402;SDS011;7799;53.478;10.170;2023-07-31T10:16:24;0.20;;;0.20;;
15402;SDS011;7799;53.478;10.170;2023-07-31T10:18:51;0.37;;;0.37;;
15402;SDS011;7799;53.478;10.170;2023-07-31T10:21:18;0.90;;;0.90;;
15402;SDS011;7799;53.478;10.170;2023-07-31T10:23:45;1.07;;;0.97;;
15402;SDS011;7799;53.478;10.170;2023-07-31T10:26:13;1.30;;;1.20;;
15402;SDS011;7799;53.478;10.170;2023-07-31T10:28:39;1.00;;;1.00;;
15402;SDS011;7799;53.478;10.170;2023-07-31T10:31:06;1.20;;;1.10;;
15402;SDS011;7799;53.478;10.170;2023-07-31T10:33:35;1.37;;;1.27;;
15402;SDS011;7799;53.478;10.170;2023-07-31T10:36:14;1.90;;;1.80;;
15402;SDS011;7799;53.478;10.170;2023-07-31T10:38:41;1.60;;;1.50;;
15402;SDS011;7799;53.478;10.170;2023-07-31T10:41:08;2.50;;;2.30;;
15402;SDS011;7799;53.478;10.170;2023-07-31T10:43:36;2.70;;;2.50;;
15402;SDS011;7799;53.478;10.170;2023-07-31T10:46:06;2.67;;;2.47;;
15402;SDS011;7799;53.478;10.170;2023-07-31T10:48:34;3.03;;;2.70;;
15402;SDS011;7799;53.478;10.170;2023-07-31T10:51:02;3.60;;;3.30;;
15402;SDS011;7799;53.478;10.170;2023-07-31T10:53:33;4.27;;;3.87;;
15402;SDS011;7799;53.478;10.170;2023-07-31T10:56:00;4.67;;;4.27;;
15402;SDS011;7799;53.478;10.170;2023-07-31T10:58:27;5.87;;;4.80;;
15402;SDS011;7799;53.478;10.170;2023-07-31T11:00:55;5.30;;;4.40;;
15402;SDS011;7799;53.478;10.170;2023-07-31T11:03:24;5.63;;;5.03;;
15402;SDS011;7799;53.478;10.170;2023-07-31T11:05:54;4.67;;;4.07;;
15402;SDS011;7799;53.478;10.170;2023-07-31T11:08:28;5.30;;;4.80;;
15402;SDS011;7799;53.478;10.170;2023-07-31T11:11:06;4.07;;;3.70;;
15402;SDS011;7799;53.478;10.170;2023-07-31T11:13:39;4.47;;;3.80;;
15402;SDS011;7799;53.478;10.170;2023-07-31T11:16:07;3.90;;;3.60;;
15402;SDS011;7799;53.478;10.170;2023-07-31T11:18:34;3.63;;;3.33;;
15402;SDS011;7799;53.478;10.170;2023-07-31T11:21:03;3.50;;;3.20;;
15402;SDS011;7799;53.478;10.170;2023-07-31T11:23:30;3.10;;;2.90;;
15402;SDS011;7799;53.478;10.170;2023-07-31T11:25:58;3.27;;;2.97;;
15402;SDS011;7799;53.478;10.170;2023-07-31T11:28:26;3.73;;;3.27;;
15402;SDS011;7799;53.478;10.170;2023-07-31T11:30:52;2.53;;;2.33;;
15402;SDS011;7799;53.478;10.170;2023-07-31T11:33:22;2.50;;;2.40;;
15402;SDS011;7799;53.478;10.170;2023-07-31T11:35:48;2.60;;;2.40;;
15402;SDS011;7799;53.478;10.170;2023-07-31T11:38:22;2.50;;;2.30;;
15402;SDS011;7799;53.478;10.170;2023-07-31T11:40:49;2.33;;;2.13;;
15402;SDS011;7799;53.478;10.170;2023-07-31T11:43:17;2.33;;;2.13;;
15402;SDS011;7799;53.478;10.170;2023-07-31T11:45:44;2.10;;;1.97;;
15402;SDS011;7799;53.478;10.170;2023-07-31T11:48:17;2.40;;;2.20;;
15402;SDS011;7799;53.478;10.170;2023-07-31T11:50:45;2.17;;;1.97;;
15402;SDS011;7799;53.478;10.170;2023-07-31T11:53:12;3.03;;;2.40;;
15402;SDS011;7799;53.478;10.170;2023-07-31T11:55:41;2.40;;;2.20;;
15402;SDS011;7799;53.478;10.170;2023-07-31T11:58:07;2.40;;;2.20;;
15402;SDS011;7799;53.478;10.170;2023-07-31T12:00:34;2.80;;;2.40;;
15402;SDS011;7799;53.478;10.170;2023-07-31T12:03:01;2.40;;;2.20;;
15402;SDS011;7799;53.478;10.170;2023-07-31T12:05:28;2.27;;;2.10;;
15402;SDS011;7799;53.478;10.170;2023-07-31T12:07:55;1.90;;;1.80;;
15402;SDS011;7799;53.478;10.170;2023-07-31T12:10:27;2.30;;;2.00;;
15402;SDS011;7799;53.478;10.170;2023-07-31T12:13:00;1.67;;;1.57;;
15402;SDS011;7799;53.478;10.170;2023-07-31T12:15:29;1.63;;;1.37;;
15402;SDS011;7799;53.478;10.170;2023-07-31T12:17:59;1.43;;;1.33;;
15402;SDS011;7799;53.478;10.170;2023-07-31T12:20:26;1.50;;;1.40;;
15402;SDS011;7799;53.478;10.170;2023-07-31T12:22:52;1.53;;;1.43;;
15402;SDS011;7799;53.478;10.170;2023-07-31T12:25:22;1.50;;;1.40;;
15402;SDS011;7799;53.478;10.170;2023-07-31T12:27:50;1.27;;;1.17;;
15402;SDS011;7799;53.478;10.170;2023-07-31T12:30:27;1.70;;;1.60;;
15402;SDS011;7799;53.478;10.170;2023-07-31T12:32:54;1.57;;;1.30;;
15402;SDS011;7799;53.478;10.170;2023-07-31T12:35:21;1.77;;;1.67;;
15402;SDS011;7799;53.478;10.170;2023-07-31T12:37:48;1.10;;;1.10;;
15402;SDS011;7799;53.478;10.170;2023-07-31T12:40:15;1.20;;;1.10;;
15402;SDS011;7799;53.478;10.170;2023-07-31T12:42:41;1.30;;;1.20;;
15402;SDS011;7799;53.478;10.170;2023-07-31T12:45:08;1.27;;;1.17;;
15402;SDS011;7799;53.478;10.170;2023-07-31T12:47:36;0.77;;;0.77;;
15402;SDS011;7799;53.478;10.170;2023-07-31T12:50:03;0.93;;;0.80;;
15402;SDS011;7799;53.478;10.170;2023-07-31T12:52:31;1.00;;;0.90;;
15402;SDS011;7799;53.478;10.170;2023-07-31T12:54:57;0.90;;;0.90;;
15402;SDS011;7799;53.478;10.170;2023-07-31T12:57:24;1.00;;;0.90;;
15402;SDS011;7799;53.478;10.170;2023-07-31T12:59:50;1.00;;;1.00;;
15402;SDS011;7799;53.478;10.170;2023-07-31T13:02:17;0.90;;;0.90;;
15402;SDS011;7799;53.478;10.170;2023-07-31T13:04:45;0.90;;;0.90;;
15402;SDS011;7799;53.478;10.170;2023-07-31T13:07:12;0.93;;;0.93;;
15402;SDS011;7799;53.478;10.170;2023-07-31T13:09:38;1.17;;;1.17;;
15402;SDS011;7799;53.478;10.170;2023-07-31T13:12:05;0.70;;;0.70;;
15402;SDS011;7799;53.478;10.170;2023-07-31T13:14:33;0.93;;;0.83;;
15402;SDS011;7799;53.478;10.170;2023-07-31T13:16:59;0.80;;;0.80;;
15402;SDS011;7799;53.478;10.170;2023-07-31T13:19:25;0.70;;;0.70;;
15402;SDS011;7799;53.478;10.170;2023-07-31T13:21:53;0.70;;;0.70;;
15402;SDS011;7799;53.478;10.170;2023-07-31T13:24:20;0.60;;;0.60;;
15402;SDS011;7799;53.478;10.170;2023-07-31T13:26:46;0.70;;;0.70;;
15402;SDS011;7799;53.478;10.170;2023-07-31T13:29:13;0.70;;;0.70;;
15402;SDS011;7799;53.478;10.170;2023-07-31T13:31:40;0.60;;;0.60;;
15402;SDS011;7799;53.478;10.170;2023-07-31T13:34:06;0.53;;;0.53;;
15402;SDS011;7799;53.478;10.170;2023-07-31T13:36:33;0.57;;;0.57;;
15402;SDS011;7799;53.478;10.170;2023-07-31T13:39:03;0.67;;;0.67;;
15402;SDS011;7799;53.478;10.170;2023-07-31T13:41:30;0.50;;;0.50;;
15402;SDS011;7799;53.478;10.170;2023-07-31T13:43:56;0.50;;;0.50;;
15402;SDS011;7799;53.478;10.170;2023-07-31T13:46:23;0.57;;;0.50;;
15402;SDS011;7799;53.478;10.170;2023-07-31T13:48:50;0.70;;;0.57;;
15402;SDS011;7799;53.478;10.170;2023-07-31T13:51:19;0.50;;;0.50;;
15402;SDS011;7799;53.478;10.170;2023-07-31T13:53:46;0.50;;;0.50;;
15402;SDS011;7799;53.478;10.170;2023-07-31T13:56:14;0.70;;;0.70;;
15402;SDS011;7799;53.478;10.170;2023-07-31T13:58:41;0.73;;;0.73;;
15402;SDS011;7799;53.478;10.170;2023-07-31T14:01:07;0.60;;;0.60;;
15402;SDS011;7799;53.478;10.170;2023-07-31T14:03:34;0.70;;;0.70;;
15402;SDS011;7799;53.478;10.170;2023-07-31T14:06:01;0.60;;;0.60;;
15402;SDS011;7799;53.478;10.170;2023-07-31T14:08:27;0.50;;;0.50;;
15402;SDS011;7799;53.478;10.170;2023-07-31T14:10:54;0.60;;;0.60;;
15402;SDS011;7799;53.478;10.170;2023-07-31T14:13:22;0.50;;;0.50;;
15402;SDS011;7799;53.478;10.170;2023-07-31T14:15:49;0.50;;;0.50;;
15402;SDS011;7799;53.478;10.170;2023-07-31T14:18:16;1.07;;;0.60;;
15402;SDS011;7799;53.478;10.170;2023-07-31T14:20:42;0.53;;;0.53;;
15402;SDS011;7799;53.478;10.170;2023-07-31T14:23:09;1.03;;;0.50;;
15402;SDS011;7799;53.478;10.170;2023-07-31T14:25:36;0.63;;;0.63;;
15402;SDS011;7799;53.478;10.170;2023-07-31T14:28:02;0.60;;;0.60;;
15402;SDS011;7799;53.478;10.170;2023-07-31T14:30:31;0.70;;;0.70;;
15402;SDS011;7799;53.478;10.170;2023-07-31T14:32:57;0.70;;;0.70;;
15402;SDS011;7799;53.478;10.170;2023-07-31T14:35:25;0.30;;;0.30;;
15402;SDS011;7799;53.478;10.170;2023-07-31T14:37:52;0.40;;;0.40;;
15402;SDS011;7799;53.478;10.170;2023-07-31T14:40:19;0.53;;;0.53;;
15402;SDS011;7799;53.478;10.170;2023-07-31T14:42:45;1.17;;;0.50;;
15402;SDS011;7799;53.478;10.170;2023-07-31T14:45:12;0.50;;;0.50;;
15402;SDS011;7799;53.478;10.170;2023-07-31T14:47:40;0.60;;;0.60;;
15402;SDS011;7799;53.478;10.170;2023-07-31T14:50:07;1.00;;;0.80;;